sensor_id;sensor_type;location;lat;lon;timestamp;P1;durP1;ratioP1;P2;durP2;ratioP2
78877;SDS011;68257;43.514;1.498;2023-04-03T00:00:45;5.77;;;2.87;;
78877;SDS011;68257;43.514;1.498;2023-04-03T00:03:10;7.10;;;2.70;;
78877;SDS011;68257;43.514;1.498;2023-04-03T00:05:35;7.20;;;2.65;;
78877;SDS011;68257;43.514;1.498;2023-04-03T00:08:01;4.78;;;2.50;;
78877;SDS011;68257;43.514;1.498;2023-04-03T00:10:32;6.70;;;2.40;;
78877;SDS011;68257;43.514;1.498;2023-04-03T00:12:58;8.43;;;2.80;;
78877;SDS011;68257;43.514;1.498;2023-04-03T00:15:23;7.13;;;2.70;;
78877;SDS011;68257;43.514;1.498;2023-04-03T00:17:49;7.50;;;2.67;;
78877;SDS011;68257;43.514;1.498;2023-04-03T00:20:14;5.93;;;2.58;;
78877;SDS011;68257;43.514;1.498;2023-04-03T00:22:40;6.82;;;2.88;;
78877;SDS011;68257;43.514;1.498;2023-04-03T00:25:05;8.33;;;2.50;;
78877;SDS011;68257;43.514;1.498;2023-04-03T00:27:31;6.20;;;2.72;;
78877;SDS011;68257;43.514;1.498;2023-04-03T00:29:57;6.63;;;2.67;;
78877;SDS011;68257;43.514;1.498;2023-04-03T00:32:22;5.67;;;2.90;;
78877;SDS011;68257;43.514;1.498;2023-04-03T00:34:48;7.32;;;2.72;;
78877;SDS011;68257;43.514;1.498;2023-04-03T00:37:13;6.07;;;2.70;;
78877;SDS011;68257;43.514;1.498;2023-04-03T00:39:38;7.03;;;2.83;;
78877;SDS011;68257;43.514;1.498;2023-04-03T00:42:04;6.63;;;3.00;;
78877;SDS011;68257;43.514;1.498;2023-04-03T00:46:58;5.27;;;2.97;;
78877;SDS011;68257;43.514;1.498;2023-04-03T00:49:23;7.80;;;2.80;;
78877;SDS011;68257;43.514;1.498;2023-04-03T00:51:49;5.33;;;2.80;;
78877;SDS011;68257;43.514;1.498;2023-04-03T00:54:14;5.80;;;2.73;;
78877;SDS011;68257;43.514;1.498;2023-04-03T00:56:40;5.80;;;2.75;;
78877;SDS011;68257;43.514;1.498;2023-04-03T00:59:08;6.60;;;2.83;;
78877;SDS011;68257;43.514;1.498;2023-04-03T01:01:36;7.40;;;2.90;;
78877;SDS011;68257;43.514;1.498;2023-04-03T01:04:02;7.20;;;2.83;;
78877;SDS011;68257;43.514;1.498;2023-04-03T01:06:30;5.05;;;2.90;;
78877;SDS011;68257;43.514;1.498;2023-04-03T01:08:57;8.38;;;3.10;;
78877;SDS011;68257;43.514;1.498;2023-04-03T01:11:24;6.90;;;3.03;;
78877;SDS011;68257;43.514;1.498;2023-04-03T01:13:50;9.00;;;3.23;;
78877;SDS011;68257;43.514;1.498;2023-04-03T01:16:15;6.80;;;2.85;;
78877;SDS011;68257;43.514;1.498;2023-04-03T01:18:41;7.03;;;2.80;;
78877;SDS011;68257;43.514;1.498;2023-04-03T01:23:39;5.20;;;2.80;;
78877;SDS011;68257;43.514;1.498;2023-04-03T01:26:11;5.13;;;3.00;;
78877;SDS011;68257;43.514;1.498;2023-04-03T01:28:37;5.90;;;3.20;;
78877;SDS011;68257;43.514;1.498;2023-04-03T01:31:10;6.97;;;2.90;;
78877;SDS011;68257;43.514;1.498;2023-04-03T01:33:52;6.63;;;3.27;;
78877;SDS011;68257;43.514;1.498;2023-04-03T01:36:20;5.45;;;2.78;;
78877;SDS011;68257;43.514;1.498;2023-04-03T01:38:47;6.13;;;2.80;;
78877;SDS011;68257;43.514;1.498;2023-04-03T01:41:13;5.00;;;3.08;;
78877;SDS011;68257;43.514;1.498;2023-04-03T01:43:39;4.97;;;3.07;;
78877;SDS011;68257;43.514;1.498;2023-04-03T01:46:04;6.37;;;2.67;;
78877;SDS011;68257;43.514;1.498;2023-04-03T01:48:30;7.07;;;3.10;;
78877;SDS011;68257;43.514;1.498;2023-04-03T01:50:55;4.80;;;2.90;;
78877;SDS011;68257;43.514;1.498;2023-04-03T01:53:20;6.03;;;3.27;;
78877;SDS011;68257;43.514;1.498;2023-04-03T01:55:46;7.63;;;3.10;;
78877;SDS011;68257;43.514;1.498;2023-04-03T01:58:11;7.60;;;3.10;;
78877;SDS011;68257;43.514;1.498;2023-04-03T02:00:37;5.90;;;3.00;;
78877;SDS011;68257;43.514;1.498;2023-04-03T02:03:02;6.05;;;3.00;;
78877;SDS011;68257;43.514;1.498;2023-04-03T02:05:28;7.00;;;3.08;;
78877;SDS011;68257;43.514;1.498;2023-04-03T02:07:53;10.50;;;3.43;;
78877;SDS011;68257;43.514;1.498;2023-04-03T02:10:18;6.27;;;3.37;;
78877;SDS011;68257;43.514;1.498;2023-04-03T02:12:44;8.77;;;3.33;;
78877;SDS011;68257;43.514;1.498;2023-04-03T02:15:10;5.53;;;3.20;;
78877;SDS011;68257;43.514;1.498;2023-04-03T02:17:35;5.20;;;3.43;;
78877;SDS011;68257;43.514;1.498;2023-04-03T02:20:01;7.70;;;3.45;;
78877;SDS011;68257;43.514;1.498;2023-04-03T02:22:28;8.80;;;3.87;;
78877;SDS011;68257;43.514;1.498;2023-04-03T02:24:53;7.75;;;3.55;;
78877;SDS011;68257;43.514;1.498;2023-04-03T02:27:19;8.50;;;3.50;;
78877;SDS011;68257;43.514;1.498;2023-04-03T02:29:44;7.97;;;3.50;;
78877;SDS011;68257;43.514;1.498;2023-04-03T02:32:09;7.63;;;4.13;;
78877;SDS011;68257;43.514;1.498;2023-04-03T02:34:35;7.63;;;3.90;;
78877;SDS011;68257;43.514;1.498;2023-04-03T02:37:00;7.18;;;3.95;;
78877;SDS011;68257;43.514;1.498;2023-04-03T02:39:26;8.53;;;4.23;;
78877;SDS011;68257;43.514;1.498;2023-04-03T02:41:51;9.02;;;3.75;;
78877;SDS011;68257;43.514;1.498;2023-04-03T02:44:17;7.22;;;3.65;;
78877;SDS011;68257;43.514;1.498;2023-04-03T02:46:43;9.60;;;4.03;;
78877;SDS011;68257;43.514;1.498;2023-04-03T02:49:09;6.72;;;3.67;;
78877;SDS011;68257;43.514;1.498;2023-04-03T02:51:34;7.73;;;4.13;;
78877;SDS011;68257;43.514;1.498;2023-04-03T02:54:00;7.77;;;3.90;;
78877;SDS011;68257;43.514;1.498;2023-04-03T02:56:25;8.50;;;4.00;;
78877;SDS011;68257;43.514;1.498;2023-04-03T02:58:51;6.80;;;3.90;;
78877;SDS011;68257;43.514;1.498;2023-04-03T03:01:17;6.88;;;3.80;;
78877;SDS011;68257;43.514;1.498;2023-04-03T03:03:42;6.47;;;4.40;;
78877;SDS011;68257;43.514;1.498;2023-04-03T03:06:12;7.63;;;4.17;;
78877;SDS011;68257;43.514;1.498;2023-04-03T03:08:42;7.88;;;3.75;;
78877;SDS011;68257;43.514;1.498;2023-04-03T03:11:08;9.88;;;4.25;;
78877;SDS011;68257;43.514;1.498;2023-04-03T03:13:34;6.93;;;4.27;;
78877;SDS011;68257;43.514;1.498;2023-04-03T03:16:00;6.75;;;3.78;;
78877;SDS011;68257;43.514;1.498;2023-04-03T03:18:26;5.68;;;3.60;;
78877;SDS011;68257;43.514;1.498;2023-04-03T03:20:52;5.80;;;3.90;;
78877;SDS011;68257;43.514;1.498;2023-04-03T03:23:18;6.88;;;4.03;;
78877;SDS011;68257;43.514;1.498;2023-04-03T03:25:43;7.10;;;3.60;;
78877;SDS011;68257;43.514;1.498;2023-04-03T03:28:08;7.77;;;4.20;;
78877;SDS011;68257;43.514;1.498;2023-04-03T03:30:34;8.80;;;4.03;;
78877;SDS011;68257;43.514;1.498;2023-04-03T03:33:00;6.70;;;3.83;;
78877;SDS011;68257;43.514;1.498;2023-04-03T03:35:25;7.40;;;4.10;;
78877;SDS011;68257;43.514;1.498;2023-04-03T03:37:51;6.47;;;4.22;;
78877;SDS011;68257;43.514;1.498;2023-04-03T03:40:16;7.07;;;4.03;;
78877;SDS011;68257;43.514;1.498;2023-04-03T03:42:42;6.83;;;4.20;;
78877;SDS011;68257;43.514;1.498;2023-04-03T03:45:07;7.17;;;4.20;;
78877;SDS011;68257;43.514;1.498;2023-04-03T03:47:33;7.50;;;4.20;;
78877;SDS011;68257;43.514;1.498;2023-04-03T03:49:59;6.43;;;3.70;;
78877;SDS011;68257;43.514;1.498;2023-04-03T03:52:25;8.75;;;4.20;;
78877;SDS011;68257;43.514;1.498;2023-04-03T03:54:51;6.90;;;4.25;;
78877;SDS011;68257;43.514;1.498;2023-04-03T03:57:16;8.63;;;4.40;;
78877;SDS011;68257;43.514;1.498;2023-04-03T03:59:41;7.33;;;4.10;;
78877;SDS011;68257;43.514;1.498;2023-04-03T04:02:08;6.78;;;4.10;;
78877;SDS011;68257;43.514;1.498;2023-04-03T04:04:34;7.53;;;3.97;;
78877;SDS011;68257;43.514;1.498;2023-04-03T04:06:59;8.73;;;4.10;;
78877;SDS011;68257;43.514;1.498;2023-04-03T04:09:25;7.78;;;4.00;;
78877;SDS011;68257;43.514;1.498;2023-04-03T04:11:51;6.97;;;4.00;;
78877;SDS011;68257;43.514;1.498;2023-04-03T04:14:16;8.18;;;4.18;;
78877;SDS011;68257;43.514;1.498;2023-04-03T04:16:42;6.37;;;4.10;;
78877;SDS011;68257;43.514;1.498;2023-04-03T04:19:07;7.70;;;4.30;;
78877;SDS011;68257;43.514;1.498;2023-04-03T04:21:33;6.55;;;4.03;;
78877;SDS011;68257;43.514;1.498;2023-04-03T04:23:58;7.30;;;4.45;;
78877;SDS011;68257;43.514;1.498;2023-04-03T04:26:24;7.13;;;3.90;;
78877;SDS011;68257;43.514;1.498;2023-04-03T04:28:49;8.33;;;3.93;;
78877;SDS011;68257;43.514;1.498;2023-04-03T04:31:15;6.37;;;3.80;;
78877;SDS011;68257;43.514;1.498;2023-04-03T04:33:40;7.23;;;4.20;;
78877;SDS011;68257;43.514;1.498;2023-04-03T04:36:05;7.40;;;4.43;;
78877;SDS011;68257;43.514;1.498;2023-04-03T04:38:31;8.40;;;4.53;;
78877;SDS011;68257;43.514;1.498;2023-04-03T04:40:56;7.17;;;4.17;;
78877;SDS011;68257;43.514;1.498;2023-04-03T04:43:22;6.63;;;4.30;;
78877;SDS011;68257;43.514;1.498;2023-04-03T04:45:47;7.00;;;4.40;;
78877;SDS011;68257;43.514;1.498;2023-04-03T04:48:12;8.48;;;4.32;;
78877;SDS011;68257;43.514;1.498;2023-04-03T04:50:38;9.87;;;4.53;;
78877;SDS011;68257;43.514;1.498;2023-04-03T04:53:03;8.13;;;4.40;;
78877;SDS011;68257;43.514;1.498;2023-04-03T04:55:29;7.30;;;4.43;;
78877;SDS011;68257;43.514;1.498;2023-04-03T04:57:54;7.35;;;3.75;;
78877;SDS011;68257;43.514;1.498;2023-04-03T05:00:20;7.73;;;4.40;;
78877;SDS011;68257;43.514;1.498;2023-04-03T05:02:46;7.45;;;3.90;;
78877;SDS011;68257;43.514;1.498;2023-04-03T05:05:11;6.50;;;4.17;;
78877;SDS011;68257;43.514;1.498;2023-04-03T05:07:37;6.50;;;4.20;;
78877;SDS011;68257;43.514;1.498;2023-04-03T05:10:02;8.17;;;4.03;;
78877;SDS011;68257;43.514;1.498;2023-04-03T05:12:28;7.75;;;4.00;;
78877;SDS011;68257;43.514;1.498;2023-04-03T05:14:54;7.50;;;4.25;;
78877;SDS011;68257;43.514;1.498;2023-04-03T05:17:19;6.87;;;3.80;;
78877;SDS011;68257;43.514;1.498;2023-04-03T05:19:45;9.83;;;4.50;;
78877;SDS011;68257;43.514;1.498;2023-04-03T05:22:10;6.47;;;4.10;;
78877;SDS011;68257;43.514;1.498;2023-04-03T05:24:35;7.13;;;4.13;;
78877;SDS011;68257;43.514;1.498;2023-04-03T05:27:01;8.55;;;4.75;;
78877;SDS011;68257;43.514;1.498;2023-04-03T05:29:26;6.93;;;4.57;;
78877;SDS011;68257;43.514;1.498;2023-04-03T05:31:52;10.00;;;4.93;;
78877;SDS011;68257;43.514;1.498;2023-04-03T05:34:17;9.00;;;4.90;;
78877;SDS011;68257;43.514;1.498;2023-04-03T05:36:43;8.95;;;5.20;;
78877;SDS011;68257;43.514;1.498;2023-04-03T05:39:09;7.93;;;4.70;;
78877;SDS011;68257;43.514;1.498;2023-04-03T05:41:34;8.05;;;4.82;;
78877;SDS011;68257;43.514;1.498;2023-04-03T05:44:00;6.43;;;4.53;;
78877;SDS011;68257;43.514;1.498;2023-04-03T05:46:25;9.50;;;5.20;;
78877;SDS011;68257;43.514;1.498;2023-04-03T05:48:51;8.15;;;5.00;;
78877;SDS011;68257;43.514;1.498;2023-04-03T05:51:22;7.57;;;4.70;;
78877;SDS011;68257;43.514;1.498;2023-04-03T05:53:48;7.13;;;4.70;;
78877;SDS011;68257;43.514;1.498;2023-04-03T05:56:25;7.40;;;4.20;;
78877;SDS011;68257;43.514;1.498;2023-04-03T05:58:51;8.95;;;4.47;;
78877;SDS011;68257;43.514;1.498;2023-04-03T06:01:16;8.23;;;4.70;;
78877;SDS011;68257;43.514;1.498;2023-04-03T06:03:42;7.83;;;5.10;;
78877;SDS011;68257;43.514;1.498;2023-04-03T06:06:07;9.13;;;4.70;;
78877;SDS011;68257;43.514;1.498;2023-04-03T06:08:33;8.02;;;4.75;;
78877;SDS011;68257;43.514;1.498;2023-04-03T06:10:59;9.57;;;4.90;;
78877;SDS011;68257;43.514;1.498;2023-04-03T06:13:26;8.50;;;5.10;;
78877;SDS011;68257;43.514;1.498;2023-04-03T06:15:52;7.45;;;4.70;;
78877;SDS011;68257;43.514;1.498;2023-04-03T06:18:17;9.15;;;4.88;;
78877;SDS011;68257;43.514;1.498;2023-04-03T06:20:43;9.37;;;6.03;;
78877;SDS011;68257;43.514;1.498;2023-04-03T06:23:08;10.90;;;6.33;;
78877;SDS011;68257;43.514;1.498;2023-04-03T06:25:34;11.33;;;5.83;;
78877;SDS011;68257;43.514;1.498;2023-04-03T06:27:59;7.28;;;4.95;;
78877;SDS011;68257;43.514;1.498;2023-04-03T06:30:25;7.17;;;4.97;;
78877;SDS011;68257;43.514;1.498;2023-04-03T06:32:51;10.32;;;5.10;;
78877;SDS011;68257;43.514;1.498;2023-04-03T06:35:16;8.17;;;4.63;;
78877;SDS011;68257;43.514;1.498;2023-04-03T06:37:42;8.83;;;4.70;;
78877;SDS011;68257;43.514;1.498;2023-04-03T06:40:10;9.80;;;5.03;;
78877;SDS011;68257;43.514;1.498;2023-04-03T06:42:44;7.78;;;5.05;;
78877;SDS011;68257;43.514;1.498;2023-04-03T06:45:09;10.60;;;5.00;;
78877;SDS011;68257;43.514;1.498;2023-04-03T06:47:36;8.30;;;4.60;;
78877;SDS011;68257;43.514;1.498;2023-04-03T06:50:01;8.10;;;5.60;;
78877;SDS011;68257;43.514;1.498;2023-04-03T06:52:27;7.28;;;4.78;;
78877;SDS011;68257;43.514;1.498;2023-04-03T06:54:52;8.47;;;4.67;;
78877;SDS011;68257;43.514;1.498;2023-04-03T06:57:22;8.90;;;4.80;;
78877;SDS011;68257;43.514;1.498;2023-04-03T06:59:47;7.40;;;4.97;;
78877;SDS011;68257;43.514;1.498;2023-04-03T07:02:13;7.33;;;5.00;;
78877;SDS011;68257;43.514;1.498;2023-04-03T07:04:38;7.63;;;4.87;;
78877;SDS011;68257;43.514;1.498;2023-04-03T07:07:03;7.17;;;4.90;;
78877;SDS011;68257;43.514;1.498;2023-04-03T07:09:29;8.63;;;4.40;;
78877;SDS011;68257;43.514;1.498;2023-04-03T07:11:54;6.90;;;4.30;;
78877;SDS011;68257;43.514;1.498;2023-04-03T07:14:20;8.03;;;5.20;;
78877;SDS011;68257;43.514;1.498;2023-04-03T07:16:46;8.07;;;4.60;;
78877;SDS011;68257;43.514;1.498;2023-04-03T07:19:11;9.07;;;4.63;;
78877;SDS011;68257;43.514;1.498;2023-04-03T07:21:37;8.15;;;4.78;;
78877;SDS011;68257;43.514;1.498;2023-04-03T07:24:02;7.83;;;4.17;;
78877;SDS011;68257;43.514;1.498;2023-04-03T07:26:28;8.27;;;4.67;;
78877;SDS011;68257;43.514;1.498;2023-04-03T07:28:53;11.57;;;5.10;;
78877;SDS011;68257;43.514;1.498;2023-04-03T07:31:18;8.07;;;4.60;;
78877;SDS011;68257;43.514;1.498;2023-04-03T07:33:44;11.52;;;6.10;;
78877;SDS011;68257;43.514;1.498;2023-04-03T07:36:10;8.97;;;5.37;;
78877;SDS011;68257;43.514;1.498;2023-04-03T07:38:39;8.02;;;4.70;;
78877;SDS011;68257;43.514;1.498;2023-04-03T07:41:05;7.53;;;4.85;;
78877;SDS011;68257;43.514;1.498;2023-04-03T07:43:31;8.27;;;4.88;;
78877;SDS011;68257;43.514;1.498;2023-04-03T07:45:58;8.00;;;4.53;;
78877;SDS011;68257;43.514;1.498;2023-04-03T07:48:24;8.30;;;4.57;;
78877;SDS011;68257;43.514;1.498;2023-04-03T07:50:50;9.25;;;4.53;;
78877;SDS011;68257;43.514;1.498;2023-04-03T07:53:16;6.50;;;3.70;;
78877;SDS011;68257;43.514;1.498;2023-04-03T07:55:42;6.90;;;3.67;;
78877;SDS011;68257;43.514;1.498;2023-04-03T07:58:11;5.95;;;4.00;;
78877;SDS011;68257;43.514;1.498;2023-04-03T08:00:38;8.02;;;4.30;;
78877;SDS011;68257;43.514;1.498;2023-04-03T08:03:04;6.93;;;4.40;;
78877;SDS011;68257;43.514;1.498;2023-04-03T08:05:30;7.40;;;3.40;;
78877;SDS011;68257;43.514;1.498;2023-04-03T08:07:56;5.72;;;3.47;;
78877;SDS011;68257;43.514;1.498;2023-04-03T08:10:21;8.00;;;3.70;;
78877;SDS011;68257;43.514;1.498;2023-04-03T08:12:47;7.07;;;3.70;;
78877;SDS011;68257;43.514;1.498;2023-04-03T08:15:13;7.13;;;3.70;;
78877;SDS011;68257;43.514;1.498;2023-04-03T08:17:38;8.75;;;3.55;;
78877;SDS011;68257;43.514;1.498;2023-04-03T08:20:04;7.97;;;3.42;;
78877;SDS011;68257;43.514;1.498;2023-04-03T08:22:31;5.53;;;3.45;;
78877;SDS011;68257;43.514;1.498;2023-04-03T08:24:57;8.77;;;3.97;;
78877;SDS011;68257;43.514;1.498;2023-04-03T08:27:22;5.60;;;3.30;;
78877;SDS011;68257;43.514;1.498;2023-04-03T08:29:48;6.70;;;3.47;;
78877;SDS011;68257;43.514;1.498;2023-04-03T08:32:13;7.00;;;3.50;;
78877;SDS011;68257;43.514;1.498;2023-04-03T08:34:38;8.50;;;3.50;;
78877;SDS011;68257;43.514;1.498;2023-04-03T08:37:04;6.47;;;3.60;;
78877;SDS011;68257;43.514;1.498;2023-04-03T08:39:30;6.72;;;3.38;;
78877;SDS011;68257;43.514;1.498;2023-04-03T08:41:57;6.47;;;3.03;;
78877;SDS011;68257;43.514;1.498;2023-04-03T08:49:53;9.43;;;3.40;;
78877;SDS011;68257;43.514;1.498;2023-04-03T08:55:10;7.95;;;3.28;;
78877;SDS011;68257;43.514;1.498;2023-04-03T08:57:43;4.78;;;3.05;;
78877;SDS011;68257;43.514;1.498;2023-04-03T09:02:42;5.93;;;2.90;;
78877;SDS011;68257;43.514;1.498;2023-04-03T09:05:11;6.10;;;3.13;;
78877;SDS011;68257;43.514;1.498;2023-04-03T09:07:43;10.95;;;3.47;;
78877;SDS011;68257;43.514;1.498;2023-04-03T09:10:12;5.60;;;2.88;;
78877;SDS011;68257;43.514;1.498;2023-04-03T09:12:53;5.40;;;2.80;;
78877;SDS011;68257;43.514;1.498;2023-04-03T09:15:25;5.93;;;2.78;;
78877;SDS011;68257;43.514;1.498;2023-04-03T09:23:31;5.18;;;2.60;;
78877;SDS011;68257;43.514;1.498;2023-04-03T09:26:06;6.68;;;2.95;;
78877;SDS011;68257;43.514;1.498;2023-04-03T09:28:35;5.93;;;2.80;;
78877;SDS011;68257;43.514;1.498;2023-04-03T09:31:05;6.30;;;3.30;;
78877;SDS011;68257;43.514;1.498;2023-04-03T09:33:42;5.25;;;2.97;;
78877;SDS011;68257;43.514;1.498;2023-04-03T09:36:07;5.57;;;3.00;;
78877;SDS011;68257;43.514;1.498;2023-04-03T09:38:32;7.53;;;3.28;;
78877;SDS011;68257;43.514;1.498;2023-04-03T09:43:31;4.75;;;2.70;;
78877;SDS011;68257;43.514;1.498;2023-04-03T09:48:56;5.95;;;2.80;;
78877;SDS011;68257;43.514;1.498;2023-04-03T09:51:26;6.07;;;2.67;;
78877;SDS011;68257;43.514;1.498;2023-04-03T09:53:53;6.03;;;2.88;;
78877;SDS011;68257;43.514;1.498;2023-04-03T09:56:20;5.75;;;2.75;;
78877;SDS011;68257;43.514;1.498;2023-04-03T09:58:50;5.30;;;2.45;;
78877;SDS011;68257;43.514;1.498;2023-04-03T10:04:02;6.57;;;2.72;;
78877;SDS011;68257;43.514;1.498;2023-04-03T10:06:34;4.95;;;2.40;;
78877;SDS011;68257;43.514;1.498;2023-04-03T10:09:05;4.18;;;2.50;;
78877;SDS011;68257;43.514;1.498;2023-04-03T10:14:58;4.03;;;3.10;;
78877;SDS011;68257;43.514;1.498;2023-04-03T10:19:54;5.60;;;2.50;;
78877;SDS011;68257;43.514;1.498;2023-04-03T10:25:29;5.75;;;2.70;;
78877;SDS011;68257;43.514;1.498;2023-04-03T10:46:51;4.50;;;3.03;;
78877;SDS011;68257;43.514;1.498;2023-04-03T10:52:20;3.95;;;1.90;;
78877;SDS011;68257;43.514;1.498;2023-04-03T10:57:22;4.35;;;1.83;;
78877;SDS011;68257;43.514;1.498;2023-04-03T10:59:56;4.70;;;2.07;;
78877;SDS011;68257;43.514;1.498;2023-04-03T11:07:43;3.30;;;1.70;;
78877;SDS011;68257;43.514;1.498;2023-04-03T11:10:13;5.18;;;1.77;;
78877;SDS011;68257;43.514;1.498;2023-04-03T11:12:46;4.37;;;1.60;;
78877;SDS011;68257;43.514;1.498;2023-04-03T11:15:15;2.90;;;1.60;;
78877;SDS011;68257;43.514;1.498;2023-04-03T11:17:48;3.50;;;1.45;;
78877;SDS011;68257;43.514;1.498;2023-04-03T11:22:48;3.70;;;2.00;;
78877;SDS011;68257;43.514;1.498;2023-04-03T11:25:20;4.40;;;1.60;;
78877;SDS011;68257;43.514;1.498;2023-04-03T11:27:55;4.50;;;1.70;;
78877;SDS011;68257;43.514;1.498;2023-04-03T11:35:42;4.05;;;1.80;;
78877;SDS011;68257;43.514;1.498;2023-04-03T11:38:10;4.63;;;2.10;;
78877;SDS011;68257;43.514;1.498;2023-04-03T11:40:42;4.95;;;2.78;;
78877;SDS011;68257;43.514;1.498;2023-04-03T11:46:08;3.50;;;1.80;;
78877;SDS011;68257;43.514;1.498;2023-04-03T11:50:59;4.43;;;2.10;;
78877;SDS011;68257;43.514;1.498;2023-04-03T11:53:28;11.13;;;5.57;;
78877;SDS011;68257;43.514;1.498;2023-04-03T11:58:25;5.40;;;2.15;;
78877;SDS011;68257;43.514;1.498;2023-04-03T12:01:10;5.72;;;2.10;;
78877;SDS011;68257;43.514;1.498;2023-04-03T12:13:33;3.63;;;1.88;;
78877;SDS011;68257;43.514;1.498;2023-04-03T12:15:59;4.00;;;1.90;;
78877;SDS011;68257;43.514;1.498;2023-04-03T12:22:04;3.95;;;2.20;;
78877;SDS011;68257;43.514;1.498;2023-04-03T12:32:17;5.63;;;2.95;;
78877;SDS011;68257;43.514;1.498;2023-04-03T12:46:00;5.93;;;2.55;;
78877;SDS011;68257;43.514;1.498;2023-04-03T12:48:50;4.80;;;2.60;;
78877;SDS011;68257;43.514;1.498;2023-04-03T12:53:48;3.83;;;2.08;;
78877;SDS011;68257;43.514;1.498;2023-04-03T12:56:19;4.30;;;1.90;;
78877;SDS011;68257;43.514;1.498;2023-04-03T12:58:53;4.82;;;2.00;;
78877;SDS011;68257;43.514;1.498;2023-04-03T13:01:21;4.28;;;2.30;;
78877;SDS011;68257;43.514;1.498;2023-04-03T13:03:49;5.18;;;2.08;;
78877;SDS011;68257;43.514;1.498;2023-04-03T13:06:27;3.63;;;2.10;;
78877;SDS011;68257;43.514;1.498;2023-04-03T13:08:58;4.33;;;2.10;;
78877;SDS011;68257;43.514;1.498;2023-04-03T13:11:38;4.50;;;2.20;;
78877;SDS011;68257;43.514;1.498;2023-04-03T13:14:14;4.35;;;2.42;;
78877;SDS011;68257;43.514;1.498;2023-04-03T13:16:42;4.82;;;1.85;;
78877;SDS011;68257;43.514;1.498;2023-04-03T13:19:16;4.88;;;2.22;;
78877;SDS011;68257;43.514;1.498;2023-04-03T13:21:42;3.50;;;2.00;;
78877;SDS011;68257;43.514;1.498;2023-04-03T13:24:09;5.78;;;2.20;;
78877;SDS011;68257;43.514;1.498;2023-04-03T13:26:35;7.85;;;2.40;;
78877;SDS011;68257;43.514;1.498;2023-04-03T13:29:05;4.97;;;2.03;;
78877;SDS011;68257;43.514;1.498;2023-04-03T13:31:35;4.70;;;2.05;;
78877;SDS011;68257;43.514;1.498;2023-04-03T13:34:06;6.15;;;2.42;;
78877;SDS011;68257;43.514;1.498;2023-04-03T13:36:37;4.38;;;1.90;;
78877;SDS011;68257;43.514;1.498;2023-04-03T13:41:37;3.67;;;1.90;;
78877;SDS011;68257;43.514;1.498;2023-04-03T13:46:57;5.25;;;1.70;;
78877;SDS011;68257;43.514;1.498;2023-04-03T13:49:38;5.28;;;3.25;;
78877;SDS011;68257;43.514;1.498;2023-04-03T13:52:20;12.18;;;9.82;;
78877;SDS011;68257;43.514;1.498;2023-04-03T13:55:03;3.87;;;2.23;;
78877;SDS011;68257;43.514;1.498;2023-04-03T13:57:51;6.32;;;2.00;;
78877;SDS011;68257;43.514;1.498;2023-04-03T14:02:55;3.42;;;1.73;;
78877;SDS011;68257;43.514;1.498;2023-04-03T14:05:21;4.68;;;2.00;;
78877;SDS011;68257;43.514;1.498;2023-04-03T14:07:49;4.63;;;2.33;;
78877;SDS011;68257;43.514;1.498;2023-04-03T14:10:15;5.53;;;2.25;;
78877;SDS011;68257;43.514;1.498;2023-04-03T14:12:41;7.57;;;3.15;;
78877;SDS011;68257;43.514;1.498;2023-04-03T14:17:49;4.53;;;2.20;;
78877;SDS011;68257;43.514;1.498;2023-04-03T14:20:17;5.23;;;1.90;;
78877;SDS011;68257;43.514;1.498;2023-04-03T14:22:44;5.32;;;1.90;;
78877;SDS011;68257;43.514;1.498;2023-04-03T14:25:10;4.77;;;1.90;;
78877;SDS011;68257;43.514;1.498;2023-04-03T14:27:37;6.20;;;2.10;;
78877;SDS011;68257;43.514;1.498;2023-04-03T14:30:06;3.70;;;1.80;;
78877;SDS011;68257;43.514;1.498;2023-04-03T14:32:33;4.00;;;1.80;;
78877;SDS011;68257;43.514;1.498;2023-04-03T14:34:59;5.95;;;2.20;;
78877;SDS011;68257;43.514;1.498;2023-04-03T14:37:26;4.95;;;2.00;;
78877;SDS011;68257;43.514;1.498;2023-04-03T14:39:54;4.63;;;2.20;;
78877;SDS011;68257;43.514;1.498;2023-04-03T14:42:25;6.30;;;2.50;;
78877;SDS011;68257;43.514;1.498;2023-04-03T14:44:52;4.22;;;1.88;;
78877;SDS011;68257;43.514;1.498;2023-04-03T14:47:19;5.35;;;2.28;;
78877;SDS011;68257;43.514;1.498;2023-04-03T14:49:46;4.53;;;1.90;;
78877;SDS011;68257;43.514;1.498;2023-04-03T14:52:32;5.37;;;2.23;;
78877;SDS011;68257;43.514;1.498;2023-04-03T14:54:59;5.07;;;2.40;;
78877;SDS011;68257;43.514;1.498;2023-04-03T14:57:26;5.63;;;1.70;;
78877;SDS011;68257;43.514;1.498;2023-04-03T14:59:53;4.63;;;2.00;;
78877;SDS011;68257;43.514;1.498;2023-04-03T15:04:52;5.57;;;2.10;;
78877;SDS011;68257;43.514;1.498;2023-04-03T15:07:18;6.72;;;2.35;;
78877;SDS011;68257;43.514;1.498;2023-04-03T15:09:44;5.10;;;2.20;;
78877;SDS011;68257;43.514;1.498;2023-04-03T15:12:10;5.05;;;2.85;;
78877;SDS011;68257;43.514;1.498;2023-04-03T15:14:35;6.57;;;2.50;;
78877;SDS011;68257;43.514;1.498;2023-04-03T15:17:01;5.47;;;2.25;;
78877;SDS011;68257;43.514;1.498;2023-04-03T15:19:27;6.23;;;2.20;;
78877;SDS011;68257;43.514;1.498;2023-04-03T15:21:53;5.00;;;2.07;;
78877;SDS011;68257;43.514;1.498;2023-04-03T15:24:18;3.83;;;2.28;;
78877;SDS011;68257;43.514;1.498;2023-04-03T15:26:44;8.93;;;2.10;;
78877;SDS011;68257;43.514;1.498;2023-04-03T15:29:09;4.23;;;1.80;;
78877;SDS011;68257;43.514;1.498;2023-04-03T15:31:35;5.15;;;2.00;;
78877;SDS011;68257;43.514;1.498;2023-04-03T15:34:00;4.70;;;2.10;;
78877;SDS011;68257;43.514;1.498;2023-04-03T15:36:26;7.13;;;2.63;;
78877;SDS011;68257;43.514;1.498;2023-04-03T15:38:51;4.20;;;1.87;;
78877;SDS011;68257;43.514;1.498;2023-04-03T15:41:17;4.18;;;1.80;;
78877;SDS011;68257;43.514;1.498;2023-04-03T15:43:42;3.93;;;1.80;;
78877;SDS011;68257;43.514;1.498;2023-04-03T15:46:08;6.43;;;2.03;;
78877;SDS011;68257;43.514;1.498;2023-04-03T15:48:33;4.35;;;2.08;;
78877;SDS011;68257;43.514;1.498;2023-04-03T15:50:59;4.37;;;2.10;;
78877;SDS011;68257;43.514;1.498;2023-04-03T15:53:25;3.88;;;1.88;;
78877;SDS011;68257;43.514;1.498;2023-04-03T15:55:50;6.43;;;2.23;;
78877;SDS011;68257;43.514;1.498;2023-04-03T15:58:16;4.63;;;2.00;;
78877;SDS011;68257;43.514;1.498;2023-04-03T16:00:41;4.47;;;1.98;;
78877;SDS011;68257;43.514;1.498;2023-04-03T16:03:11;6.67;;;2.63;;
78877;SDS011;68257;43.514;1.498;2023-04-03T16:05:40;7.22;;;2.90;;
78877;SDS011;68257;43.514;1.498;2023-04-03T16:08:05;5.30;;;2.20;;
78877;SDS011;68257;43.514;1.498;2023-04-03T16:10:32;5.38;;;1.80;;
78877;SDS011;68257;43.514;1.498;2023-04-03T16:12:58;4.65;;;1.95;;
78877;SDS011;68257;43.514;1.498;2023-04-03T16:15:23;3.72;;;1.75;;
78877;SDS011;68257;43.514;1.498;2023-04-03T16:17:50;5.53;;;2.17;;
78877;SDS011;68257;43.514;1.498;2023-04-03T16:20:15;5.03;;;2.20;;
78877;SDS011;68257;43.514;1.498;2023-04-03T16:22:41;5.97;;;2.60;;
78877;SDS011;68257;43.514;1.498;2023-04-03T16:25:07;5.18;;;2.30;;
78877;SDS011;68257;43.514;1.498;2023-04-03T16:27:33;5.35;;;2.40;;
78877;SDS011;68257;43.514;1.498;2023-04-03T16:29:59;4.82;;;2.40;;
78877;SDS011;68257;43.514;1.498;2023-04-03T16:32:26;5.23;;;2.00;;
78877;SDS011;68257;43.514;1.498;2023-04-03T16:34:53;5.88;;;2.10;;
78877;SDS011;68257;43.514;1.498;2023-04-03T16:37:18;4.43;;;2.07;;
78877;SDS011;68257;43.514;1.498;2023-04-03T16:39:44;4.63;;;1.90;;
78877;SDS011;68257;43.514;1.498;2023-04-03T16:42:09;4.57;;;2.10;;
78877;SDS011;68257;43.514;1.498;2023-04-03T16:44:35;4.57;;;2.00;;
78877;SDS011;68257;43.514;1.498;2023-04-03T16:47:01;5.35;;;2.08;;
78877;SDS011;68257;43.514;1.498;2023-04-03T16:49:27;5.03;;;1.93;;
78877;SDS011;68257;43.514;1.498;2023-04-03T16:51:58;6.10;;;1.95;;
78877;SDS011;68257;43.514;1.498;2023-04-03T16:54:24;6.28;;;2.22;;
78877;SDS011;68257;43.514;1.498;2023-04-03T16:56:49;6.30;;;3.03;;
78877;SDS011;68257;43.514;1.498;2023-04-03T16:59:15;5.63;;;2.50;;